Barren Springs, VA (24313)

10:58 AM EDT on August 25, 2016 (GMT -0400)
APRSWXNET | | Change Station

Elev 2240 ft 36.90 °N, 80.80 °W | Updated 21 minutes ago

Clear
Clear
78 °F
Feels Like 80 °F
N
2
Wind Variable Wind from South
Gusts 7.0 mph

Today
High -- | Low -- °F
--% Chance of Precip.
Yesterday
High -- | Low -- °F
Precip. -- in
Pressure 30.27 in
Visibility 10.0 miles
Clouds Clear
Heat Index 80 °F
Dew Point 72 °F
Humidity 81%
Rainfall in
Snow Depth Not available.
6:48 AM 8:00 PM
Last Quarter, 45% visible
METAR KHLX 251455Z AUTO 30008KT 10SM CLR 24/21 A3027 RMK AO2 T02440210
Pressure 30.27 in
Visibility 10.0 miles
Clouds Clear
Heat Index 80 °F
Dew Point 72 °F
Humidity 81%
Rainfall in
Snow Depth Not available.
6:48 AM 8:00 PM
Last Quarter, 45% visible
METAR KHLX 251455Z AUTO 30008KT 10SM CLR 24/21 A3027 RMK AO2 T02440210

10-Day Weather Forecast

Almanac

Astronomy

Aug. 25, 2016 Rise Set
Actual Time
Civil Twilight
Nautical Twilight
Astronomical Twilight
Moon
Length of Visible Light
Length of Day
Tomorrow will be .
, % of the Moon is Illuminated

Today's Extremes

State Highs State Lows

Community

WunderPhotos

Upload Photos

1,934,850 photos uploaded!

WunderBlog® & News

Nearby

Air Quality

  Air Quality AQ Index Pollutant
Not available.

Snow Depth

Station Depth Elevation

Earthquake Activity

City Distance Mag. Time & Date
Minimum magnitude displayed is 2.5.

Coastal Water Temperatures

Place Temperature

Stations

Nearby Weather Stations

Station Location Temp. Windchill Dew Point Humidity Wind Precip. Elev Updated Type
                   

Watches & Warnings

There are currently no watches in effect.